Main page
METAR-TAF:

METAR-TAF

Airports :

Hawarden Airport

Hawarden, Wales

latitude: 53-10N, longitude: 002-59W, elevation: 10 m

Current weather observation

The report was made 29 minutes ago, at 20:50 UTC
Wind 11 kt from the South/Southeast
Temperature 11°C
Humidity 82%
Pressure 1019 hPa
Visibility 10 km or more
Scattered clouds at a height of 3200 ft

METAR: EGNR 132050Z 16011KT 9999 SCT032 11/08 Q1019

Time: 21:19 (21:19 UTC)

Forecast

The report was made 4 hours and 15 minutes ago, at 17:04 UTC
Forecast valid from 13 at 18 UTC to 13 at 21 UTC
Wind 8 kt from the South/Southeast
Visibility 10 km or more
Few clouds at a height of 2000 ft
Scattered clouds at a height of 4000 ft

TAF: EGNR 131704Z 1318/1321 15008KT 9999 FEW020 SCT040

Weather observations and forecasts of more than 4000 airports (METAR and TAF reports).

The available stations are represented by yellow and red dots on the map.

Hover mouse over dot to see the name of the station.

Then click to see weather observations and forecasts.

To change the map : click on the green buttons with a black cross to zoom in, on the green button with a dash to zoom out, or on the green arrows for adjacent maps.


METAR-TAF: